x

Gulf Of Maine - 78 Nm East Of Portsmouth, Nh (44005) Wave Buoy

10:50pm - Wed 18th Jan 2017 All times are EST. -5 hours from GMT.

  • Sig Wave height 7.5ft
  • Swell Direction
  • Peak Period 8s
  • Average Period 6s
  • Wind
    13mph, 16mph gusts
  • Sea Temp 46°f
  • 空気 Temp 39°f
  • Sea Pressure 1016.3mb
  • Gulf Of Maine - 78 Nm East Of Portsmouth, Nh
  • Gulf Of Maine - 78 Nm East Of Portsmouth, Nh

More Historic Weather Station data

Upgrade to MSW Pro to gain access to the past 30 days of data for over 8000 Wavebouys and Weather Stations around the globe.

Join Pro

Comparision Forecast

View Surf forecast
   
Wed 01/18 10:50pm 7.5ft 8s 6s 13 16 mph 1016.3mb 46f 39f
9:50pm 7.5ft 8s 6s 16 18 mph 1016.7mb 46f 38f
8:50pm 8ft 8s 6s 16 20 mph 1017.1mb 46f 38f
7:50pm 8.5ft 8s 6s 18 22 mph 1017.4mb 46f 38f
6:50pm 8.5ft 9s 6s 20 27 mph 1017.2mb 46f 38f
5:50pm 9.5ft 9s 6s 22 27 mph 1016.7mb 46f 38f
4:50pm 10ft 8s 7s 22 27 mph 1016.3mb 46f 38f
3:50pm 9ft 8s 6s 22 27 mph 1015.9mb 46f 37f
2:50pm 10ft 8s 6s 22 29 mph 1015.9mb 46f 37f
1:50pm 11ft 8s 6s 25 29 mph 1015.5mb 46f 36f
12:50pm 11ft 8s 6s 27 31 mph 1015.4mb 46f 36f
11:50am 10ft 8s 6s 27 34 mph 1015.6mb 46f 36f
10:50am 9.5ft 8s 6s 27 31 mph 1016.9mb 46f 36f
9:50am 9ft 7s 6s 27 31 mph 1017.5mb 46f 36f
8:50am 7ft 6s 5s 27 31 mph 1017.6mb 46f 36f
6:50am 5ft 5s 5s 25 29 mph 1017.5mb 46f 36f
5:50am 5ft 5s 4s 20 25 mph 1017.9mb 46f 36f
4:50am 4.5ft 5s 4s 25 27 mph 1017.7mb 46f 35f
3:50am 4.5ft 5s 4s 22 27 mph 1018.2mb 46f 35f
2:50am 4ft 5s 4s 20 22 mph 1019.5mb 46f 34f
1:50am 3.5ft 5s 4s 16 20 mph 1020.4mb 46f 34f
12:50am 3.5ft 5s 4s 18 25 mph 1021mb 46f 33f
Tue 01/17 11:50pm 3.5ft 5s 4s 20 25 mph 1021.1mb 46f 37f
10:50pm 3.5ft 4s 4s 20 25 mph 1021.9mb 46f 37f
9:50pm 3ft 5s 4s 18 25 mph 1022.7mb 46f 37f
8:50pm 2.5ft 4s 4s 16 20 mph 1023.4mb 46f 37f
7:50pm 2.5ft 4s 4s 16 20 mph 1023.6mb 46f 37f
6:50pm 2.5ft 5s 4s 18 22 mph 1023.4mb 46f 37f
5:50pm 2.5ft 5s 4s 16 18 mph 1023.7mb 46f 37f
4:50pm 2.5ft 5s 4s 11 16 mph 1024.2mb 46f 36f
3:50pm 2.5ft 5s 4s 11 16 mph 1023.6mb 46f 37f
2:50pm 3ft 5s 4s 11 16 mph 1023.3mb 46f 39f
1:50pm 3ft 5s 4s 13 16 mph 1022.7mb 46f 41f
12:50pm 3ft 4s 4s 16 18 mph 1023.4mb 46f 41f
11:50am 2.5ft 4s 4s 13 18 mph 1023.6mb 46f 41f
10:50am 2.5ft 4s 4s 18 22 mph 1023.9mb 46f 41f
9:50am 2.5ft 4s 4s 18 20 mph 1024.3mb 46f 42f
8:50am 3ft 5s 4s 16 18 mph 1024.1mb 46f 41f
7:50am 3.5ft 6s 4s 16 20 mph 1023.3mb 46f 41f
6:50am 3.5ft 6s 4s 11 16 mph 1022.5mb 46f 40f
5:50am 4ft 6s 5s 13 16 mph 1021.6mb 46f 40f
4:50am 4.5ft 6s 5s 9 13 mph 1021.2mb 46f 40f
3:50am 4.5ft 6s 5s 13 16 mph 1021mb 46f 40f
2:50am 5ft 6s 5s 16 18 mph 1021mb 46f 41f
1:50am 5.5ft 6s 5s 18 22 mph 1020.3mb 46f 41f
12:50am 6ft 7s 5s 20 25 mph 1019.8mb 46f 41f
Mon 01/16 11:50pm 6ft 6s 5s 22 27 mph 1020.2mb 46f 42f
10:50pm 6ft 6s 5s 22 29 mph 1020.6mb 46f 42f
9:50pm 6.5ft 7s 5s 27 29 mph 1021.1mb 46f 42f
8:50pm 6.5ft 6s 5s 27 31 mph 1021.7mb 46f 42f
7:50pm 6ft 6s 5s 27 34 mph 1021.9mb 46f 41f
6:50pm 6ft 6s 5s 25 29 mph 1022.4mb 46f 41f
5:50pm 7ft 7s 5s 27 31 mph 1022.1mb 46f 41f
4:50pm 6.5ft 6s 5s 27 34 mph 1022.2mb 46f 40f
3:50pm 5.5ft 6s 5s 27 34 mph 1022.9mb 46f 40f
2:50pm 5ft 5s 5s 27 31 mph 1023.8mb 46f 41f
1:50pm 4.5ft 5s 4s 25 29 mph 1023.8mb 46f 40f
12:50pm 4ft 4s 4s 25 29 mph 1024.7mb 46f 40f
11:50am 3ft 4s 4s 22 29 mph 1026.4mb 46f 39f
10:50am 2.5ft 3s 3s 20 25 mph 1028.1mb 45f 38f
9:50am 1.6ft 11s 4s 18 22 mph 1029mb 45f 38f
8:50am 1.6ft 5s 4s 13 20 mph 1029.4mb 45f 37f
7:50am 1.6ft 5s 4s 11 18 mph 1029.6mb 44f 33f
6:50am 2ft 4s 4s 4 11 mph 1029.7mb 44f 28f
5:50am 2ft 4s 4s  -  2 mph 1030.4mb 44f 28f
4:50am 2ft 5s 4s  -  4 mph 1030mb 44f 27f
3:50am 2.5ft 4s 4s  -  4 mph 1030.3mb 44f 27f
2:50am 2.5ft 4s 4s 4 7 mph 1030.2mb 44f 27f
1:50am 2.5ft 5s 4s 7 11 mph 1030.2mb 44f 27f
12:50am 3ft 5s 4s 7 13 mph 1029.7mb 45f 27f
Sun 01/15 11:50pm 3.5ft 5s 4s 9 13 mph 1029.3mb 45f 27f
10:50pm 3.5ft 5s 4s 13 18 mph 1029.1mb 45f 28f
9:50pm 4ft 5s 4s 16 20 mph 1029.1mb 45f 29f
8:50pm 3.5ft 4s 4s 18 25 mph 1028.4mb 45f 29f
7:50pm 3.5ft 5s 4s 20 27 mph 1028mb 45f 30f
6:50pm 3ft 4s 4s 18 25 mph 1027.9mb 45f 31f
5:50pm 3.5ft 4s 4s 20 25 mph 1026.5mb 45f 32f
4:50pm 3.5ft 5s 4s 20 27 mph 1025.6mb 45f 32f
3:50pm 4ft 5s 4s 20 25 mph 1024.6mb 45f 34f
2:50pm 4ft 5s 4s 22 27 mph 1023.9mb 45f 35f
1:50pm 4.5ft 5s 4s 22 27 mph 1023.3mb 45f 36f
12:50pm 5ft 5s 5s 22 27 mph 1023.1mb 45f 35f
11:50am 5ft 5s 5s 22 27 mph 1022.9mb 45f 35f
10:50am 5ft 5s 5s 22 29 mph 1023.4mb 45f 35f
9:50am 4.5ft 5s 4s 22 29 mph 1024mb 45f 35f
8:50am 3.5ft 4s 4s 20 27 mph 1023.7mb 45f 34f
7:50am 3.5ft 5s 4s 20 25 mph 1022.8mb 45f 33f
6:50am 3.5ft 5s 4s 16 20 mph 1022.4mb 45f 31f
5:50am 4.5ft 5s 4s 16 20 mph 1021.9mb 45f 31f